Time;durP1;ratioP1;P1;durP2;ratioP2;P2;SDS_P1;SDS_P2;PMS_P1;PMS_P2;Temp;Humidity;BMP_temperature;BMP_pressure;BME280_temperature;BME280_humidity;BME280_pressure;Samples;Min_cycle;Max_cycle;Signal;HPM_P1;HPM_P2
2024/02/13 00:00:59;;;;;;;;;;;;;;;28.06;20.89;97340.59;5107710;28;19927;-80
2024/02/13 00:03:25;;;;;;;;;;;;;;;28.08;20.99;97340.91;5097092;28;19924;-80
2024/02/13 00:05:54;;;;;;;;;;;;;;;27.96;21.07;97353.16;5100705;28;19920;-80
2024/02/13 00:08:20;;;;;;;;;;;;;;;27.65;21.59;97352.69;5100886;28;19927;-80
2024/02/13 00:10:46;;;;;;;;;;;;;;;27.58;21.48;97350.22;5092872;28;19916;-80
2024/02/13 00:13:12;;;;;;;;;;;;;;;27.39;21.72;97355.91;5094652;28;19924;-80
2024/02/13 00:15:38;;;;;;;;;;;;;;;27.41;21.79;97349.78;5101127;28;20394;-80
2024/02/13 00:18:07;;;;;;;;;;;;;;;27.38;21.96;97362.00;5098764;28;19998;-80
2024/02/13 00:20:33;;;;;;;;;;;;;;;27.25;22.04;97362.19;5102049;28;19916;-80
2024/02/13 00:23:03;;;;;;;;;;;;;;;27.28;21.96;97360.47;5100918;28;19923;-80
2024/02/13 00:25:29;;;;;;;;;;;;;;;27.43;21.88;97372.66;5105480;28;19931;-80
2024/02/13 00:27:55;;;;;;;;;;;;;;;27.14;22.23;97378.03;5102203;28;19926;-80
2024/02/13 00:30:21;;;;;;;;;;;;;;;26.97;22.51;97373.97;5096913;28;20003;-80
2024/02/13 00:32:47;;;;;;;;;;;;;;;27.01;22.58;97371.75;5103860;28;19916;-80
2024/02/13 00:35:13;;;;;;;;;;;;;;;26.61;22.76;97386.75;5116623;28;19919;-80
2024/02/13 00:37:39;;;;;;;;;;;;;;;26.42;23.08;97387.22;5115309;27;19919;-80
2024/02/13 00:40:09;;;;;;;;;;;;;;;26.28;23.34;97388.56;5104956;27;20266;-79
2024/02/13 00:42:35;;;;;;;;;;;;;;;26.34;23.30;97385.94;5085074;28;19974;-80
2024/02/13 00:45:05;;;;;;;;;;;;;;;26.09;23.63;97396.16;5104965;27;19959;-80
2024/02/13 00:47:31;;;;;;;;;;;;;;;25.65;23.82;97399.56;5107402;27;19998;-80
2024/02/13 00:49:59;;;;;;;;;;;;;;;25.44;23.98;97403.97;5104483;28;21507;-80
2024/02/13 00:52:28;;;;;;;;;;;;;;;25.20;24.64;97402.88;5095893;28;19928;-80
2024/02/13 00:54:57;;;;;;;;;;;;;;;26.03;23.33;97408.47;5102897;27;20407;-79
2024/02/13 00:57:24;;;;;;;;;;;;;;;26.00;23.47;97413.00;5095537;27;19927;-80
2024/02/13 00:59:50;;;;;;;;;;;;;;;25.73;23.69;97417.72;5095922;27;19960;-79
2024/02/13 01:02:19;;;;;;;;;;;;;;;25.89;23.44;97414.66;5109952;28;20396;-79
2024/02/13 01:04:46;;;;;;;;;;;;;;;25.43;24.34;97419.25;5115410;28;19916;-79
2024/02/13 01:07:12;;;;;;;;;;;;;;;25.32;24.01;97421.69;5115252;28;19919;-79
2024/02/13 01:09:38;;;;;;;;;;;;;;;25.64;24.06;97429.72;5113774;27;19920;-79
2024/02/13 01:12:04;;;;;;;;;;;;;;;25.73;23.92;97434.59;5099230;27;19924;-80
2024/02/13 01:14:30;;;;;;;;;;;;;;;25.53;24.12;97432.16;5108121;27;19920;-78
2024/02/13 01:16:56;;;;;;;;;;;;;;;25.16;24.30;97444.34;5100621;27;20016;-78
2024/02/13 01:19:23;;;;;;;;;;;;;;;24.82;24.68;97447.19;5102005;27;19920;-78
2024/02/13 01:21:49;;;;;;;;;;;;;;;25.06;24.68;97451.94;5099608;27;19920;-78
2024/02/13 01:24:15;;;;;;;;;;;;;;;25.13;24.60;97448.06;5103336;27;20291;-79
2024/02/13 01:26:44;;;;;;;;;;;;;;;25.22;24.54;97456.56;5105813;28;19924;-80
2024/02/13 01:29:11;;;;;;;;;;;;;;;25.14;24.40;97461.66;5111537;28;19916;-79
2024/02/13 01:31:38;;;;;;;;;;;;;;;25.33;24.29;97456.97;5106140;27;19921;-79
2024/02/13 01:34:07;;;;;;;;;;;;;;;25.10;24.31;97452.59;5089518;27;19961;-80
2024/02/13 01:36:34;;;;;;;;;;;;;;;25.58;23.49;97456.84;5110748;28;19920;-80
2024/02/13 01:39:03;;;;;;;;;;;;;;;25.89;23.08;97462.47;5098942;28;20271;-80
2024/02/13 01:41:29;;;;;;;;;;;;;;;25.74;22.97;97459.44;5100054;28;20385;-80
2024/02/13 01:43:56;;;;;;;;;;;;;;;25.45;23.72;97475.03;5082331;28;19947;-80
2024/02/13 01:46:22;;;;;;;;;;;;;;;25.38;23.45;97471.22;5095661;28;19923;-80
2024/02/13 01:48:48;;;;;;;;;;;;;;;25.61;23.38;97483.25;5107185;27;19919;-80
2024/02/13 01:51:15;;;;;;;;;;;;;;;25.85;22.55;97475.91;5100932;28;19924;-80
2024/02/13 01:53:42;;;;;;;;;;;;;;;25.97;22.77;97478.66;5114660;28;19981;-79
2024/02/13 01:56:09;;;;;;;;;;;;;;;25.64;22.84;97487.97;5097637;28;19963;-80
2024/02/13 01:58:36;;;;;;;;;;;;;;;25.98;22.63;97485.03;5095641;28;19916;-80
2024/02/13 02:01:04;;;;;;;;;;;;;;;26.10;22.20;97487.00;5098891;28;19920;-80
2024/02/13 02:03:34;;;;;;;;;;;;;;;26.17;22.18;97483.13;5120385;27;20292;-81
2024/02/13 02:06:01;;;;;;;;;;;;;;;26.35;22.01;97491.66;5109011;27;19920;-78
2024/02/13 02:08:27;;;;;;;;;;;;;;;26.68;21.61;97487.81;5074750;28;19920;-79
2024/02/13 02:10:57;;;;;;;;;;;;;;;26.85;21.50;97496.03;5100574;27;20136;-79
2024/02/13 02:13:24;;;;;;;;;;;;;;;26.93;21.31;97486.03;5103451;27;20380;-78
2024/02/13 02:15:51;;;;;;;;;;;;;;;26.75;21.38;97495.22;5097286;28;19974;-78
2024/02/13 02:18:17;;;;;;;;;;;;;;;26.67;21.36;97497.53;5092451;28;20025;-78
2024/02/13 02:20:43;;;;;;;;;;;;;;;26.60;21.27;97502.69;5100765;28;19928;-78
2024/02/13 02:23:09;;;;;;;;;;;;;;;26.75;21.00;97503.66;5094839;27;20385;-78
2024/02/13 02:25:35;;;;;;;;;;;;;;;26.88;20.60;97498.72;5092388;28;19924;-78
2024/02/13 02:28:02;;;;;;;;;;;;;;;26.88;20.90;97506.38;5092162;28;19967;-78
2024/02/13 02:30:28;;;;;;;;;;;;;;;26.68;20.97;97506.75;5091907;28;19920;-78
2024/02/13 02:32:54;;;;;;;;;;;;;;;26.48;20.91;97512.03;5092538;28;19928;-78
2024/02/13 02:35:20;;;;;;;;;;;;;;;25.97;21.80;97512.41;5092253;28;19928;-78
2024/02/13 02:37:50;;;;;;;;;;;;;;;26.12;21.42;97509.81;5095697;28;19974;-78
2024/02/13 02:40:18;;;;;;;;;;;;;;;26.38;21.14;97507.59;5099714;28;19920;-78
2024/02/13 02:42:45;;;;;;;;;;;;;;;26.42;21.03;97509.00;5092028;28;19939;-78
2024/02/13 02:45:12;;;;;;;;;;;;;;;26.45;20.95;97515.75;5091587;28;19927;-78
2024/02/13 02:47:38;;;;;;;;;;;;;;;26.39;21.02;97520.44;5095896;27;19927;-78
2024/02/13 02:50:05;;;;;;;;;;;;;;;26.38;21.31;97525.28;5091594;27;20435;-78
2024/02/13 02:52:31;;;;;;;;;;;;;;;26.38;21.03;97524.47;5097731;28;19931;-78
2024/02/13 02:54:57;;;;;;;;;;;;;;;26.49;20.70;97528.44;5083837;28;19977;-78
2024/02/13 02:57:23;;;;;;;;;;;;;;;26.53;20.58;97534.72;5091727;28;19920;-78
2024/02/13 02:59:49;;;;;;;;;;;;;;;26.13;21.06;97535.94;5091008;28;20415;-78
2024/02/13 03:02:15;;;;;;;;;;;;;;;25.84;21.82;97547.44;5092155;28;19938;-78
2024/02/13 03:04:41;;;;;;;;;;;;;;;25.79;21.40;97550.88;5095547;28;19928;-78
2024/02/13 03:07:08;;;;;;;;;;;;;;;25.64;21.83;97550.63;5091269;28;19927;-78
2024/02/13 03:09:34;;;;;;;;;;;;;;;25.41;22.05;97559.47;5104817;28;19919;-78
2024/02/13 03:12:00;;;;;;;;;;;;;;;25.11;22.47;97554.50;5092023;28;19927;-78
2024/02/13 03:14:26;;;;;;;;;;;;;;;25.29;22.00;97554.66;5091551;28;19928;-78
2024/02/13 03:16:53;;;;;;;;;;;;;;;25.38;22.28;97561.16;5094750;28;19931;-78
2024/02/13 03:19:19;;;;;;;;;;;;;;;25.57;21.81;97564.94;5091948;28;19920;-79
2024/02/13 03:21:45;;;;;;;;;;;;;;;25.54;21.66;97565.84;5094857;28;20027;-78
2024/02/13 03:24:11;;;;;;;;;;;;;;;25.66;21.49;97567.00;5095558;28;19963;-78
2024/02/13 03:26:37;;;;;;;;;;;;;;;25.27;22.15;97572.00;5102188;28;19978;-77
2024/02/13 03:29:03;;;;;;;;;;;;;;;25.44;21.91;97578.22;5104950;28;20365;-78
2024/02/13 03:31:29;;;;;;;;;;;;;;;25.34;22.38;97577.34;5104369;28;19920;-78
2024/02/13 03:33:55;;;;;;;;;;;;;;;25.60;21.69;97583.69;5082273;28;20299;-78
2024/02/13 03:36:22;;;;;;;;;;;;;;;25.64;21.72;97592.78;5100607;28;19927;-78
2024/02/13 03:38:49;;;;;;;;;;;;;;;25.75;21.46;97598.81;5107692;28;19928;-78
2024/02/13 03:41:16;;;;;;;;;;;;;;;25.66;21.69;97604.34;5101772;28;20239;-78
2024/02/13 03:43:43;;;;;;;;;;;;;;;25.46;22.09;97598.25;5101613;28;20016;-78
2024/02/13 03:46:10;;;;;;;;;;;;;;;25.06;22.61;97608.44;5104728;28;19967;-78
2024/02/13 03:48:36;;;;;;;;;;;;;;;24.94;22.58;97614.88;5100818;28;19920;-78
2024/02/13 03:51:03;;;;;;;;;;;;;;;25.14;22.24;97606.94;5094938;28;20452;-77
2024/02/13 03:53:29;;;;;;;;;;;;;;;25.14;22.54;97610.56;5101815;28;19924;-78
2024/02/13 03:55:55;;;;;;;;;;;;;;;25.40;22.11;97614.88;5104803;27;19924;-78
2024/02/13 03:58:21;;;;;;;;;;;;;;;25.73;21.82;97618.16;5100010;28;19920;-78
2024/02/13 04:00:47;;;;;;;;;;;;;;;26.13;20.91;97621.16;5099966;27;20323;-78
2024/02/13 04:03:13;;;;;;;;;;;;;;;26.23;20.28;97625.59;5110870;27;20421;-78
2024/02/13 04:05:40;;;;;;;;;;;;;;;26.23;20.30;97627.63;5102580;27;19924;-77
2024/02/13 04:08:09;;;;;;;;;;;;;;;26.25;20.02;97633.56;5097010;27;19920;-78
2024/02/13 04:10:35;;;;;;;;;;;;;;;25.79;20.85;97636.00;5100162;27;20278;-78
2024/02/13 04:13:01;;;;;;;;;;;;;;;25.83;20.90;97631.06;5099250;27;19927;-77
2024/02/13 04:15:27;;;;;;;;;;;;;;;25.94;20.54;97630.66;5099520;27;20336;-77
2024/02/13 04:17:53;;;;;;;;;;;;;;;25.89;20.82;97637.66;5096013;27;20388;-77
2024/02/13 04:20:20;;;;;;;;;;;;;;;25.59;20.52;97643.97;5099184;27;20420;-77
2024/02/13 04:22:46;;;;;;;;;;;;;;;25.70;20.14;97641.56;5099606;27;19981;-77
2024/02/13 04:25:12;;;;;;;;;;;;;;;25.84;20.27;97643.09;5107726;27;19931;-77
2024/02/13 04:27:38;;;;;;;;;;;;;;;25.64;20.42;97651.03;5103736;27;20301;-77
2024/02/13 04:30:08;;;;;;;;;;;;;;;25.72;20.11;97643.94;5109109;27;20319;-77
2024/02/13 04:32:36;;;;;;;;;;;;;;;25.61;20.67;97649.94;5107881;27;20006;-77
2024/02/13 04:35:03;;;;;;;;;;;;;;;25.62;20.40;97650.72;5112315;27;19974;-77
2024/02/13 04:37:29;;;;;;;;;;;;;;;25.33;20.37;97650.88;5107299;27;20342;-77
2024/02/13 04:39:55;;;;;;;;;;;;;;;25.26;20.90;97653.91;5110953;27;19916;-77
2024/02/13 04:42:31;;;;;;;;;;;;;;;25.14;20.79;97647.06;5100829;27;19928;-77
2024/02/13 04:44:59;;;;;;;;;;;;;;;25.03;20.91;97648.66;5105854;27;19927;-77
2024/02/13 04:47:28;;;;;;;;;;;;;;;24.96;21.28;97646.88;5081905;28;20361;-77
2024/02/13 04:49:56;;;;;;;;;;;;;;;25.13;21.21;97653.16;5107731;28;19927;-77
2024/02/13 04:52:22;;;;;;;;;;;;;;;25.42;20.69;97650.94;5115945;28;19923;-78
2024/02/13 04:54:48;;;;;;;;;;;;;;;25.60;20.04;97656.00;5098982;27;19993;-77
2024/02/13 04:57:14;;;;;;;;;;;;;;;25.70;20.06;97666.88;5106989;27;20269;-77
2024/02/13 04:59:47;;;;;;;;;;;;;;;25.42;20.32;97665.81;5108298;27;19934;-77
2024/02/13 05:02:18;;;;;;;;;;;;;;;25.67;19.69;97661.38;5100944;27;19920;-77
2024/02/13 05:07:32;;;;;;;;;;;;;;;25.63;19.76;97686.00;5102767;27;19977;-77
2024/02/13 05:09:58;;;;;;;;;;;;;;;25.73;19.60;97680.03;5107654;27;20011;-78
2024/02/13 05:12:25;;;;;;;;;;;;;;;25.72;19.98;97689.69;5095838;27;19926;-78
2024/02/13 05:14:52;;;;;;;;;;;;;;;25.77;19.76;97691.16;5101418;28;19920;-78
2024/02/13 05:17:26;;;;;;;;;;;;;;;25.80;19.93;97698.69;5099053;27;20403;-77
2024/02/13 05:19:53;;;;;;;;;;;;;;;25.60;20.39;97701.00;5093984;27;19928;-78
2024/02/13 05:22:19;;;;;;;;;;;;;;;25.63;20.26;97700.84;5092245;28;19920;-78
2024/02/13 05:24:46;;;;;;;;;;;;;;;25.57;20.79;97705.50;5101069;28;19924;-78
2024/02/13 05:27:13;;;;;;;;;;;;;;;25.74;20.71;97701.28;5094467;28;19923;-78
2024/02/13 05:29:39;;;;;;;;;;;;;;;26.08;20.42;97701.28;5100640;28;20338;-78
2024/02/13 05:32:06;;;;;;;;;;;;;;;26.16;20.46;97715.13;5093085;28;19942;-78
2024/02/13 05:34:32;;;;;;;;;;;;;;;26.27;20.01;97716.31;5097112;28;20324;-78
2024/02/13 05:36:58;;;;;;;;;;;;;;;26.17;20.04;97722.31;5108705;27;20526;-78
2024/02/13 05:39:25;;;;;;;;;;;;;;;26.34;20.40;97730.13;5105539;27;19920;-78
2024/02/13 05:41:51;;;;;;;;;;;;;;;26.57;20.08;97737.31;5105275;28;19968;-78
2024/02/13 05:44:17;;;;;;;;;;;;;;;26.68;19.80;97732.06;5106088;28;19926;-78
2024/02/13 05:46:43;;;;;;;;;;;;;;;25.60;20.53;97741.13;5106156;27;19920;-78
2024/02/13 05:49:09;;;;;;;;;;;;;;;25.75;20.84;97741.44;5108369;27;20018;-77
2024/02/13 05:51:35;;;;;;;;;;;;;;;26.17;21.10;97745.63;5103261;27;19916;-77
2024/02/13 05:54:04;;;;;;;;;;;;;;;26.51;20.56;97750.44;5098970;28;19920;-77
2024/02/13 05:56:31;;;;;;;;;;;;;;;26.77;19.70;97756.72;5105225;28;19928;-77
2024/02/13 05:59:00;;;;;;;;;;;;;;;26.30;20.48;97756.84;5112349;28;19927;-78
2024/02/13 06:01:27;;;;;;;;;;;;;;;26.54;20.42;97758.72;5107573;27;19928;-77
2024/02/13 06:03:56;;;;;;;;;;;;;;;26.80;20.11;97767.84;5103984;27;19943;-77
2024/02/13 06:06:22;;;;;;;;;;;;;;;26.53;20.05;97765.63;5111543;27;19927;-77
2024/02/13 06:08:49;;;;;;;;;;;;;;;26.43;20.18;97772.41;5107201;27;19915;-77
2024/02/13 06:11:15;;;;;;;;;;;;;;;26.05;20.26;97771.72;5096419;28;19928;-77
2024/02/13 06:13:44;;;;;;;;;;;;;;;26.31;21.22;97776.06;5112596;28;19964;-77
2024/02/13 06:16:11;;;;;;;;;;;;;;;26.68;20.73;97772.28;5103630;28;19971;-77
2024/02/13 06:18:37;;;;;;;;;;;;;;;27.01;20.05;97780.34;5108310;27;20480;-77
2024/02/13 06:21:03;;;;;;;;;;;;;;;26.50;20.33;97786.25;5096980;28;20015;-77
2024/02/13 06:23:30;;;;;;;;;;;;;;;26.33;20.86;97782.03;5106027;28;19927;-77
2024/02/13 06:25:56;;;;;;;;;;;;;;;26.61;20.27;97781.00;5112530;28;19924;-77
2024/02/13 06:28:22;;;;;;;;;;;;;;;26.44;20.35;97798.53;5095883;28;20346;-77
2024/02/13 06:30:48;;;;;;;;;;;;;;;26.49;20.75;97801.53;5102108;28;20289;-78
2024/02/13 06:33:14;;;;;;;;;;;;;;;26.80;20.25;97795.22;5106189;27;20369;-77
2024/02/13 06:35:40;;;;;;;;;;;;;;;27.02;20.35;97798.81;5106358;27;20288;-77
2024/02/13 06:38:07;;;;;;;;;;;;;;;27.06;20.58;97807.91;5097381;27;20014;-77
2024/02/13 06:40:34;;;;;;;;;;;;;;;26.98;20.12;97806.63;5094394;28;20437;-77
2024/02/13 06:43:01;;;;;;;;;;;;;;;27.01;20.58;97819.78;5107186;27;20330;-77
2024/02/13 06:45:27;;;;;;;;;;;;;;;26.91;20.84;97826.63;5104643;28;19978;-78
2024/02/13 06:47:53;;;;;;;;;;;;;;;26.86;20.68;97827.22;5104257;27;19938;-77
2024/02/13 06:50:19;;;;;;;;;;;;;;;27.05;20.58;97826.84;5112350;28;19927;-77
2024/02/13 06:52:51;;;;;;;;;;;;;;;27.13;20.51;97833.81;5112728;28;19926;-77
2024/02/13 06:55:19;;;;;;;;;;;;;;;26.63;20.96;97829.19;5108779;28;19930;-78
2024/02/13 06:57:46;;;;;;;;;;;;;;;26.76;21.07;97836.84;5102430;27;19919;-77
2024/02/13 07:00:13;;;;;;;;;;;;;;;27.09;20.84;97835.97;5108054;28;19989;-77
2024/02/13 07:02:42;;;;;;;;;;;;;;;27.20;20.90;97836.34;5102851;28;20011;-77
2024/02/13 07:05:09;;;;;;;;;;;;;;;27.03;20.55;97840.63;5098356;28;19919;-77
2024/02/13 07:07:35;;;;;;;;;;;;;;;27.15;21.13;97847.44;5095723;28;20006;-77
2024/02/13 07:10:02;;;;;;;;;;;;;;;27.25;21.12;97847.03;5106677;28;19926;-77
2024/02/13 07:12:29;;;;;;;;;;;;;;;27.56;20.88;97847.06;5106090;28;19981;-77
2024/02/13 07:14:55;;;;;;;;;;;;;;;27.57;20.84;97856.28;5098101;28;19986;-77
2024/02/13 07:17:22;;;;;;;;;;;;;;;27.02;21.40;97850.34;5110544;28;19922;-77
2024/02/13 07:19:48;;;;;;;;;;;;;;;26.87;21.60;97860.56;5099176;28;19938;-77
2024/02/13 07:22:14;;;;;;;;;;;;;;;26.49;22.01;97874.00;5096597;28;19920;-77
2024/02/13 07:24:41;;;;;;;;;;;;;;;25.86;22.98;97866.41;5093395;28;19924;-77
2024/02/13 07:27:12;;;;;;;;;;;;;;;25.73;23.22;97874.06;5093048;28;19916;-77
2024/02/13 07:29:40;;;;;;;;;;;;;;;25.08;23.78;97881.28;5095060;27;19916;-78
2024/02/13 07:32:07;;;;;;;;;;;;;;;24.99;24.04;97881.13;5108960;28;19920;-77
2024/02/13 07:34:42;;;;;;;;;;;;;;;23.35;26.79;97888.47;5087058;28;20022;-77
2024/02/13 07:37:08;;;;;;;;;;;;;;;23.70;26.02;97887.66;5096743;28;19979;-77
2024/02/13 07:39:34;;;;;;;;;;;;;;;23.66;26.25;97888.97;5097914;28;19920;-78
2024/02/13 07:42:01;;;;;;;;;;;;;;;22.87;27.52;97899.47;5105564;27;19922;-77
2024/02/13 07:44:29;;;;;;;;;;;;;;;23.85;25.99;97902.91;5087219;28;19923;-78
2024/02/13 07:46:56;;;;;;;;;;;;;;;23.86;26.06;97907.28;5109353;27;20015;-78
2024/02/13 07:49:22;;;;;;;;;;;;;;;23.64;26.41;97906.19;5098666;27;20569;-77
2024/02/13 07:51:51;;;;;;;;;;;;;;;22.28;28.27;97916.91;5109171;27;19920;-77
2024/02/13 07:54:19;;;;;;;;;;;;;;;21.43;29.79;97916.59;5108267;27;19963;-77
2024/02/13 07:56:46;;;;;;;;;;;;;;;22.39;28.21;97913.91;5116772;27;19924;-77
2024/02/13 07:59:14;;;;;;;;;;;;;;;23.21;27.97;97920.34;5110360;27;20030;-77
2024/02/13 08:01:43;;;;;;;;;;;;;;;22.26;28.01;97924.94;5110295;28;20285;-77
2024/02/13 08:04:10;;;;;;;;;;;;;;;21.27;30.08;97931.97;5104839;28;19928;-77
2024/02/13 08:06:37;;;;;;;;;;;;;;;22.34;28.50;97933.97;5107701;28;20292;-77
2024/02/13 08:09:04;;;;;;;;;;;;;;;21.79;29.14;97924.06;5112322;28;19920;-77
2024/02/13 08:11:30;;;;;;;;;;;;;;;23.70;26.52;97921.28;5107470;27;20463;-77
2024/02/13 08:13:56;;;;;;;;;;;;;;;23.44;26.81;97927.88;5104890;27;20424;-77
2024/02/13 08:16:22;;;;;;;;;;;;;;;23.13;28.83;97929.31;5111538;27;19928;-77
2024/02/13 08:18:51;;;;;;;;;;;;;;;22.91;28.33;97945.75;5108232;27;19920;-77
2024/02/13 08:21:17;;;;;;;;;;;;;;;23.49;27.21;97932.19;5108074;28;20015;-77
2024/02/13 08:23:43;;;;;;;;;;;;;;;23.74;26.63;97936.00;5110340;27;19927;-78
2024/02/13 08:26:09;;;;;;;;;;;;;;;23.45;27.84;97942.69;5102579;27;20369;-78
2024/02/13 08:28:37;;;;;;;;;;;;;;;23.05;28.52;97948.28;5102084;27;19920;-78
2024/02/13 08:31:04;;;;;;;;;;;;;;;22.24;30.92;97952.50;5103823;27;20001;-77
2024/02/13 08:33:31;;;;;;;;;;;;;;;22.84;28.00;97945.91;5100795;27;20427;-77
2024/02/13 08:35:57;;;;;;;;;;;;;;;23.30;27.22;97956.16;5097387;27;20091;-77
2024/02/13 08:38:23;;;;;;;;;;;;;;;23.85;26.52;97958.22;5113422;28;19950;-77
2024/02/13 08:40:49;;;;;;;;;;;;;;;24.32;26.12;97970.72;5110900;27;19928;-77
2024/02/13 08:43:15;;;;;;;;;;;;;;;24.32;26.15;97976.31;5110653;28;19955;-78
2024/02/13 08:45:41;;;;;;;;;;;;;;;24.34;26.33;97973.09;5110006;27;20385;-77
2024/02/13 08:48:07;;;;;;;;;;;;;;;24.27;25.96;97978.88;5113223;27;19973;-77
2024/02/13 08:50:33;;;;;;;;;;;;;;;23.83;26.95;97983.88;5114066;28;20391;-77
2024/02/13 08:52:59;;;;;;;;;;;;;;;23.17;27.81;97974.84;5115200;28;20388;-78
2024/02/13 08:55:25;;;;;;;;;;;;;;;22.57;29.65;97987.94;5115427;28;19968;-78
2024/02/13 08:57:54;;;;;;;;;;;;;;;23.03;28.88;97980.72;5106108;27;20329;-77
2024/02/13 09:00:20;;;;;;;;;;;;;;;22.21;29.20;97986.94;5100076;27;19965;-77
2024/02/13 09:02:47;;;;;;;;;;;;;;;21.97;30.27;97993.69;5113377;28;20006;-77
2024/02/13 09:05:14;;;;;;;;;;;;;;;23.63;27.24;97987.94;5114827;28;19916;-77
2024/02/13 09:07:41;;;;;;;;;;;;;;;23.55;26.76;97990.09;5110702;28;19968;-77
2024/02/13 09:10:12;;;;;;;;;;;;;;;24.18;25.72;97987.13;5115250;28;20300;-78
2024/02/13 09:12:38;;;;;;;;;;;;;;;23.05;26.03;97981.09;5115209;28;19916;-77
2024/02/13 09:15:11;;;;;;;;;;;;;;;21.02;28.98;97992.09;5111622;28;19916;-77
2024/02/13 09:17:43;;;;;;;;;;;;;;;22.30;27.21;97992.00;5111125;28;19916;-77
2024/02/13 09:20:21;;;;;;;;;;;;;;;23.49;26.23;97983.44;5109601;28;19963;-77
2024/02/13 09:22:47;;;;;;;;;;;;;;;23.77;27.45;97994.03;5114965;28;19943;-78
2024/02/13 09:25:14;;;;;;;;;;;;;;;24.02;25.00;97994.25;5110077;28;19954;-78
2024/02/13 09:27:41;;;;;;;;;;;;;;;23.23;26.16;97998.34;5108984;27;20007;-78
2024/02/13 09:30:07;;;;;;;;;;;;;;;23.81;25.57;97991.13;5109084;28;19924;-78
2024/02/13 09:32:37;;;;;;;;;;;;;;;24.33;24.72;98000.38;5097884;27;19973;-78
2024/02/13 09:35:04;;;;;;;;;;;;;;;23.60;27.33;97997.19;5098030;28;19931;-78
2024/02/13 09:37:31;;;;;;;;;;;;;;;24.34;25.09;97999.13;5095219;28;20442;-78
2024/02/13 09:39:57;;;;;;;;;;;;;;;24.83;24.19;97997.13;5095863;28;19928;-78
2024/02/13 09:42:25;;;;;;;;;;;;;;;24.61;25.96;97993.25;5104793;27;19998;-78
2024/02/13 09:44:52;;;;;;;;;;;;;;;25.01;23.63;98003.06;5103355;28;19997;-77
2024/02/13 09:47:18;;;;;;;;;;;;;;;25.06;24.25;98004.53;5109093;27;19920;-78
2024/02/13 09:49:46;;;;;;;;;;;;;;;23.45;24.97;98005.13;5093816;28;19922;-77
2024/02/13 09:52:13;;;;;;;;;;;;;;;22.69;28.21;98008.94;5094791;28;19916;-78
2024/02/13 09:54:42;;;;;;;;;;;;;;;22.32;28.32;98012.72;5096710;28;19921;-77
2024/02/13 09:57:10;;;;;;;;;;;;;;;22.19;29.32;98010.94;5095125;28;20297;-77
2024/02/13 09:59:37;;;;;;;;;;;;;;;23.04;27.16;98015.91;5114936;28;19931;-78
2024/02/13 10:02:05;;;;;;;;;;;;;;;22.42;26.43;98016.56;5113368;28;20295;-78
2024/02/13 10:04:31;;;;;;;;;;;;;;;23.71;25.42;98023.00;5105587;27;19927;-78
2024/02/13 10:07:01;;;;;;;;;;;;;;;22.37;26.59;98022.66;5108065;28;19920;-78
2024/02/13 10:09:29;;;;;;;;;;;;;;;22.02;27.34;98018.38;5102884;28;19919;-78
2024/02/13 10:11:55;;;;;;;;;;;;;;;21.84;28.04;98020.66;5102946;28;19924;-78
2024/02/13 10:14:24;;;;;;;;;;;;;;;23.55;25.62;98018.13;5107000;27;19920;-78
2024/02/13 10:16:50;;;;;;;;;;;;;;;22.84;29.08;98026.28;5108774;28;20359;-78
2024/02/13 10:19:19;;;;;;;;;;;;;;;22.39;28.19;98017.41;5111762;28;19922;-78
2024/02/13 10:21:49;;;;;;;;;;;;;;;21.34;30.88;98032.44;5112566;28;20573;-77
2024/02/13 10:24:15;;;;;;;;;;;;;;;23.10;29.45;98028.22;5104997;28;20281;-78
2024/02/13 10:26:41;;;;;;;;;;;;;;;23.15;26.15;98034.09;5110259;28;19972;-77
2024/02/13 10:29:08;;;;;;;;;;;;;;;23.51;28.08;98025.81;5103740;27;20364;-78
2024/02/13 10:31:35;;;;;;;;;;;;;;;21.95;28.61;98036.06;5109910;28;20292;-78
2024/02/13 10:34:08;;;;;;;;;;;;;;;21.08;29.31;98040.69;5105547;28;19915;-78
2024/02/13 10:36:34;;;;;;;;;;;;;;;22.43;27.51;98038.53;5111133;28;19924;-78
2024/02/13 10:39:03;;;;;;;;;;;;;;;22.89;25.50;98037.00;5113540;28;20242;-78
2024/02/13 10:41:33;;;;;;;;;;;;;;;22.58;28.05;98034.28;5102571;28;19924;-78
2024/02/13 10:43:59;;;;;;;;;;;;;;;24.23;25.11;98028.66;5096197;28;19926;-79
2024/02/13 10:46:28;;;;;;;;;;;;;;;25.67;22.20;98022.09;5107748;28;19996;-78
2024/02/13 10:49:13;;;;;;;;;;;;;;;25.11;24.07;98024.44;5094855;28;20064;-78
2024/02/13 10:51:40;;;;;;;;;;;;;;;24.19;23.09;98022.34;5109746;28;19920;-78
2024/02/13 10:54:09;;;;;;;;;;;;;;;25.01;22.57;98031.16;5104266;28;19972;-78
2024/02/13 10:56:38;;;;;;;;;;;;;;;25.67;21.47;98036.16;5111400;28;20313;-78
2024/02/13 10:59:06;;;;;;;;;;;;;;;23.36;27.79;98025.31;5110160;28;20006;-78
2024/02/13 11:01:35;;;;;;;;;;;;;;;24.21;23.48;98031.13;5109407;28;19927;-78
2024/02/13 11:04:02;;;;;;;;;;;;;;;24.48;22.03;98026.06;5102379;28;19920;-78
2024/02/13 11:06:28;;;;;;;;;;;;;;;24.10;24.80;98045.41;5098805;28;20393;-78
2024/02/13 11:08:54;;;;;;;;;;;;;;;24.85;22.54;98036.81;5104548;28;20407;-77
2024/02/13 11:11:22;;;;;;;;;;;;;;;24.69;23.57;98033.97;5112691;28;19968;-78
2024/02/13 11:13:49;;;;;;;;;;;;;;;25.09;22.82;98026.13;5106089;28;19919;-79
2024/02/13 11:16:18;;;;;;;;;;;;;;;25.86;21.71;98021.13;5105085;28;20285;-78
2024/02/13 11:18:48;;;;;;;;;;;;;;;26.44;21.00;98023.78;5100660;28;19927;-78
2024/02/13 11:21:21;;;;;;;;;;;;;;;26.95;21.07;98022.50;5108637;28;20384;-79
2024/02/13 11:24:05;;;;;;;;;;;;;;;26.63;21.24;98025.53;5098337;28;19981;-78
2024/02/13 11:26:32;;;;;;;;;;;;;;;25.11;24.11;98029.28;5113016;28;20008;-79
2024/02/13 11:29:09;;;;;;;;;;;;;;;26.18;21.05;98028.63;5098739;28;20267;-79
2024/02/13 11:31:35;;;;;;;;;;;;;;;27.38;20.13;98024.59;5101137;28;19927;-79
2024/02/13 11:34:08;;;;;;;;;;;;;;;27.15;19.59;98020.16;5107428;28;19920;-79
2024/02/13 11:36:34;;;;;;;;;;;;;;;26.80;19.50;98024.19;5110508;28;19920;-79
2024/02/13 11:39:06;;;;;;;;;;;;;;;26.47;19.92;98025.69;5089191;28;19920;-79
2024/02/13 11:41:34;;;;;;;;;;;;;;;26.96;19.67;98026.88;5108433;28;19927;-79
2024/02/13 11:44:11;;;;;;;;;;;;;;;26.91;19.75;98023.84;5099388;28;20312;-79
2024/02/13 11:46:54;;;;;;;;;;;;;;;25.10;21.75;98039.75;5111396;28;19919;-79
2024/02/13 11:49:25;;;;;;;;;;;;;;;22.73;25.07;98045.28;5096718;28;20395;-79
2024/02/13 11:51:51;;;;;;;;;;;;;;;24.88;21.78;98038.72;5104393;28;19920;-79
2024/02/13 11:54:18;;;;;;;;;;;;;;;24.84;23.33;98038.00;5094054;28;20018;-79
2024/02/13 11:56:44;;;;;;;;;;;;;;;23.73;21.94;98037.38;5105348;28;19934;-78
2024/02/13 11:59:10;;;;;;;;;;;;;;;24.13;22.77;98040.94;5110541;28;19927;-78
2024/02/13 12:01:37;;;;;;;;;;;;;;;23.89;21.18;98045.84;5104638;28;19963;-78
2024/02/13 12:04:03;;;;;;;;;;;;;;;23.90;24.86;98047.41;5101016;28;20400;-78
2024/02/13 12:06:29;;;;;;;;;;;;;;;24.94;21.55;98042.56;5106122;28;20820;-79
2024/02/13 12:08:59;;;;;;;;;;;;;;;24.34;20.81;98043.25;5105887;28;19974;-78
2024/02/13 12:11:28;;;;;;;;;;;;;;;24.51;20.24;98037.19;5095237;28;19924;-78
2024/02/13 12:13:54;;;;;;;;;;;;;;;21.88;24.63;98043.75;5094927;28;19916;-78
2024/02/13 12:16:22;;;;;;;;;;;;;;;22.32;23.75;98048.28;5106019;28;19965;-79
2024/02/13 12:18:49;;;;;;;;;;;;;;;22.61;26.12;98050.25;5100538;28;20006;-79
2024/02/13 12:21:16;;;;;;;;;;;;;;;23.17;22.55;98045.69;5105795;28;20296;-79
2024/02/13 12:23:46;;;;;;;;;;;;;;;23.23;22.82;98051.56;5102526;28;19928;-79
2024/02/13 12:26:16;;;;;;;;;;;;;;;23.94;21.67;98051.72;5097105;28;20416;-78
2024/02/13 12:28:43;;;;;;;;;;;;;;;23.62;22.03;98051.59;5096898;27;20572;-79
2024/02/13 12:31:10;;;;;;;;;;;;;;;24.46;21.95;98048.94;5113135;27;20335;-79
2024/02/13 12:33:36;;;;;;;;;;;;;;;25.10;20.32;98053.78;5095857;28;19920;-79
2024/02/13 12:36:05;;;;;;;;;;;;;;;25.26;19.69;98059.38;5077751;28;19920;-78
2024/02/13 12:38:31;;;;;;;;;;;;;;;23.42;28.24;98064.03;5101431;28;19949;-78
2024/02/13 12:40:57;;;;;;;;;;;;;;;23.37;21.82;98065.31;5115038;28;19927;-78
2024/02/13 12:43:27;;;;;;;;;;;;;;;23.15;22.79;98067.69;5103874;27;19924;-79
2024/02/13 12:45:55;;;;;;;;;;;;;;;24.34;20.34;98060.09;5100158;27;19947;-79
2024/02/13 12:48:22;;;;;;;;;;;;;;;24.42;20.59;98064.28;5096605;27;20417;-79
2024/02/13 12:50:49;;;;;;;;;;;;;;;24.20;21.71;98071.63;5084466;28;20019;-79